Check out our new PWSWeather beta!
PWSweather.com
Personal Weather Stations
Station Observations
SELSTON
Bracken House, Selston NottinghamGB NG16 6AN

Bracken HouseSelston NottinghamGB NG16 6AN

Lat: 53.070642, Lon: -1.2933

Elevation: 426

Station Type: Davis Vantage Pro 2

http://www.selstonweather.info

Latest ConditionsUpdated 10:54:01 AM GMT Wednesday, Feb 26, 2020
Currently Today's Max Today's Min Today's Average
Temperature 40.7°F4.8°C 41.1°F5.1°C 34.5°F1.4°C 36.2°F2.3°C
Dew Point 35.6°F2.0°C 36.9°F2.7°C 32.1°F0.1°C 33.5°F0.8°C
Winds 12.0 mph NW19.3 kmh NW 14.0 mph -22.5 kmh - - 6.5 mph 10.5 kmh
Wind Gusts 17.0 mph27.4 kmh 19.0 mph30.6 kmh - -
Humidity 82% 93% 82% 90%
Pressure 29.56 in1001.0 mb 29.56 in1001.0 mb 29.34 in993.6 mb -
Precipitation - 0.02 in0.5 mm - -
Hour Temp Dew Point Humidity Winds Wind Gusts Pressure Precip Precip Rate Daily Precip Total
10:54 AM 40.7°F4.8°C 35.6°F2.0°C 82% 12.0 mph NW19.3 kmh NW 17.0 mph27.4 kmh 29.56 in1001.0 mb 0.00 in0.0 mm 0.00 in0.0 mm 0.02 in0.5 mm
10:49 AM 41.1°F5.1°C 36.3°F2.4°C 83% 5.0 mph NW8.0 kmh NW 15.0 mph24.1 kmh 29.56 in1001.0 mb 0.00 in0.0 mm 0.00 in0.0 mm 0.02 in0.5 mm
10:44 AM 41.1°F5.1°C 36.3°F2.4°C 83% 8.0 mph NW12.9 kmh NW 14.0 mph22.5 kmh 29.56 in1001.0 mb 0.00 in0.0 mm 0.00 in0.0 mm 0.02 in0.5 mm
10:39 AM 41.1°F5.1°C 36.9°F2.7°C 85% 5.0 mph NW8.0 kmh NW 14.0 mph22.5 kmh 29.56 in1001.0 mb 0.00 in0.0 mm 0.00 in0.0 mm 0.02 in0.5 mm
10:34 AM 40.7°F4.8°C 36.8°F2.7°C 86% 14.0 mph W22.5 kmh W 14.0 mph22.5 kmh 29.56 in1001.0 mb 0.00 in0.0 mm 0.00 in0.0 mm 0.02 in0.5 mm
10:29 AM 40.2°F4.6°C 36.1°F2.3°C 85% 11.0 mph NW17.7 kmh NW 14.0 mph22.5 kmh 29.56 in1001.0 mb 0.00 in0.0 mm 0.00 in0.0 mm 0.02 in0.5 mm
10:24 AM 40.2°F4.6°C 36.4°F2.4°C 86% 12.0 mph NW19.3 kmh NW 13.0 mph20.9 kmh 29.56 in1001.0 mb 0.00 in0.0 mm 0.00 in0.0 mm 0.01 in0.3 mm
10:19 AM 40.2°F4.6°C 36.4°F2.4°C 86% 5.0 mph NW8.0 kmh NW 14.0 mph22.5 kmh 29.56 in1001.0 mb 0.00 in0.0 mm 0.00 in0.0 mm 0.01 in0.3 mm
10:14 AM 40.1°F4.5°C 36.3°F2.4°C 86% 12.0 mph NW19.3 kmh NW 14.0 mph22.5 kmh 29.55 in1000.7 mb 0.00 in0.0 mm 0.00 in0.0 mm 0.01 in0.3 mm
10:09 AM 40.2°F4.6°C 36.4°F2.4°C 86% 10.0 mph NNW16.1 kmh NNW 15.0 mph24.1 kmh 29.55 in1000.7 mb 0.00 in0.0 mm 0.00 in0.0 mm 0.01 in0.3 mm
10:04 AM 40.2°F4.6°C 36.6°F2.6°C 87% 6.0 mph NNW9.7 kmh NNW 15.0 mph24.1 kmh 29.55 in1000.7 mb 0.00 in0.0 mm 0.00 in0.0 mm 0.01 in0.3 mm
09:59 AM 39.7°F4.3°C 36.2°F2.3°C 87% 7.0 mph NW11.3 kmh NW 15.0 mph24.1 kmh 29.55 in1000.7 mb 0.00 in0.0 mm 0.00 in0.0 mm 0.01 in0.3 mm
09:54 AM 39.3°F4.1°C 35.5°F1.9°C 86% 9.0 mph WNW14.5 kmh WNW 15.0 mph24.1 kmh 29.54 in1000.3 mb 0.00 in0.0 mm 0.00 in0.0 mm 0.01 in0.3 mm
09:49 AM 39.1°F3.9°C 35.3°F1.8°C 86% 7.0 mph WNW11.3 kmh WNW 15.0 mph24.1 kmh 29.54 in1000.3 mb 0.00 in0.0 mm 0.00 in0.0 mm 0.01 in0.3 mm
09:44 AM 39.2°F4.0°C 35.1°F1.7°C 85% 8.0 mph NW12.9 kmh NW 15.0 mph24.1 kmh 29.54 in1000.3 mb 0.00 in0.0 mm 0.00 in0.0 mm 0.01 in0.3 mm
09:39 AM 39.6°F4.2°C 35.8°F2.1°C 86% 10.0 mph WNW16.1 kmh WNW 19.0 mph30.6 kmh 29.53 in1000.0 mb 0.00 in0.0 mm 0.00 in0.0 mm 0.01 in0.3 mm
09:34 AM 39.9°F4.4°C 36.1°F2.3°C 86% 7.0 mph WNW11.3 kmh WNW 19.0 mph30.6 kmh 29.53 in1000.0 mb 0.00 in0.0 mm 0.00 in0.0 mm 0.01 in0.3 mm
09:29 AM 39.9°F4.4°C 36.6°F2.6°C 88% 8.0 mph WNW12.9 kmh WNW 19.0 mph30.6 kmh 29.53 in1000.0 mb 0.00 in0.0 mm 0.00 in0.0 mm 0.01 in0.3 mm
09:24 AM 39.5°F4.2°C 36.2°F2.3°C 88% 10.0 mph WNW16.1 kmh WNW 19.0 mph30.6 kmh 29.52 in999.7 mb 0.00 in0.0 mm 0.00 in0.0 mm 0.01 in0.3 mm
09:19 AM 39.1°F3.9°C 35.6°F2.0°C 87% 11.0 mph WNW17.7 kmh WNW 16.0 mph25.7 kmh 29.52 in999.7 mb 0.00 in0.0 mm 0.00 in0.0 mm 0.01 in0.3 mm
09:14 AM 39.0°F3.9°C 35.5°F1.9°C 87% 7.0 mph WNW11.3 kmh WNW 16.0 mph25.7 kmh 29.52 in999.7 mb 0.00 in0.0 mm 0.00 in0.0 mm 0.01 in0.3 mm
09:09 AM 38.7°F3.7°C 35.5°F1.9°C 88% 10.0 mph WNW16.1 kmh WNW 16.0 mph25.7 kmh 29.52 in999.7 mb 0.00 in0.0 mm 0.00 in0.0 mm 0.01 in0.3 mm
09:04 AM 38.2°F3.4°C 34.7°F1.5°C 87% 9.0 mph NW14.5 kmh NW 17.0 mph27.4 kmh 29.52 in999.7 mb 0.00 in0.0 mm 0.00 in0.0 mm 0.01 in0.3 mm
08:59 AM 37.8°F3.2°C 34.6°F1.4°C 88% 8.0 mph NW12.9 kmh NW 17.0 mph27.4 kmh 29.52 in999.7 mb 0.00 in0.0 mm 0.00 in0.0 mm 0.01 in0.3 mm
08:54 AM 37.5°F3.1°C 34.3°F1.3°C 88% 6.0 mph WNW9.7 kmh WNW 17.0 mph27.4 kmh 29.52 in999.7 mb 0.00 in0.0 mm 0.00 in0.0 mm 0.01 in0.3 mm
08:49 AM 37.3°F2.9°C 34.1°F1.2°C 88% 6.0 mph NW9.7 kmh NW 17.0 mph27.4 kmh 29.52 in999.7 mb 0.00 in0.0 mm 0.00 in0.0 mm 0.01 in0.3 mm
08:44 AM 37.1°F2.8°C 33.9°F1.1°C 88% 5.0 mph NW8.0 kmh NW 12.0 mph19.3 kmh 29.51 in999.3 mb 0.00 in0.0 mm 0.00 in0.0 mm 0.01 in0.3 mm
08:39 AM 37.0°F2.8°C 33.8°F1.0°C 88% 7.0 mph NW11.3 kmh NW 11.0 mph17.7 kmh 29.51 in999.3 mb 0.00 in0.0 mm 0.00 in0.0 mm 0.01 in0.3 mm
08:34 AM 36.8°F2.7°C 33.9°F1.1°C 89% 6.0 mph WNW9.7 kmh WNW 11.0 mph17.7 kmh 29.51 in999.3 mb 0.00 in0.0 mm 0.00 in0.0 mm 0.01 in0.3 mm
08:29 AM 36.6°F2.6°C 33.7°F0.9°C 89% 6.0 mph WNW9.7 kmh WNW 11.0 mph17.7 kmh 29.51 in999.3 mb 0.00 in0.0 mm 0.00 in0.0 mm 0.01 in0.3 mm
08:24 AM 36.5°F2.5°C 33.6°F0.9°C 89% 5.0 mph W8.0 kmh W 8.0 mph12.9 kmh 29.50 in999.0 mb 0.00 in0.0 mm 0.00 in0.0 mm 0.01 in0.3 mm
08:19 AM 36.4°F2.4°C 33.8°F1.0°C 90% 4.0 mph WNW6.4 kmh WNW 8.0 mph12.9 kmh 29.50 in999.0 mb 0.00 in0.0 mm 0.00 in0.0 mm 0.01 in0.3 mm
08:14 AM 36.1°F2.3°C 33.5°F0.8°C 90% 5.0 mph WNW8.0 kmh WNW 8.0 mph12.9 kmh 29.50 in999.0 mb 0.00 in0.0 mm 0.00 in0.0 mm 0.01 in0.3 mm
08:09 AM 36.0°F2.2°C 33.4°F0.8°C 90% 8.0 mph W12.9 kmh W 8.0 mph12.9 kmh 29.49 in998.6 mb 0.00 in0.0 mm 0.00 in0.0 mm 0.01 in0.3 mm
08:04 AM 35.7°F2.1°C 33.1°F0.6°C 90% 5.0 mph NW8.0 kmh NW 8.0 mph12.9 kmh 29.49 in998.6 mb 0.00 in0.0 mm 0.00 in0.0 mm 0.01 in0.3 mm
07:59 AM 35.3°F1.8°C 32.7°F0.4°C 90% 3.0 mph NW4.8 kmh NW 8.0 mph12.9 kmh 29.49 in998.6 mb 0.00 in0.0 mm 0.00 in0.0 mm 0.01 in0.3 mm
07:54 AM 35.2°F1.8°C 32.6°F0.3°C 90% 3.0 mph NW4.8 kmh NW 8.0 mph12.9 kmh 29.49 in998.6 mb 0.00 in0.0 mm 0.00 in0.0 mm 0.01 in0.3 mm
07:49 AM 35.2°F1.8°C 32.6°F0.3°C 90% 6.0 mph WNW9.7 kmh WNW 7.0 mph11.3 kmh 29.48 in998.3 mb 0.00 in0.0 mm 0.00 in0.0 mm 0.01 in0.3 mm
07:44 AM 35.2°F1.8°C 32.6°F0.3°C 90% 6.0 mph WNW9.7 kmh WNW 7.0 mph11.3 kmh 29.48 in998.3 mb 0.00 in0.0 mm 0.00 in0.0 mm 0.01 in0.3 mm
07:39 AM 35.2°F1.8°C 32.6°F0.3°C 90% 4.0 mph NW6.4 kmh NW 7.0 mph11.3 kmh 29.48 in998.3 mb 0.00 in0.0 mm 0.00 in0.0 mm 0.01 in0.3 mm
07:34 AM 35.3°F1.8°C 32.7°F0.4°C 90% 3.0 mph NW4.8 kmh NW 9.0 mph14.5 kmh 29.48 in998.3 mb 0.00 in0.0 mm 0.00 in0.0 mm 0.01 in0.3 mm
07:29 AM 35.3°F1.8°C 32.7°F0.4°C 90% 6.0 mph NW9.7 kmh NW 9.0 mph14.5 kmh 29.48 in998.3 mb 0.00 in0.0 mm 0.00 in0.0 mm 0.01 in0.3 mm
07:24 AM 35.3°F1.8°C 32.7°F0.4°C 90% 6.0 mph NW9.7 kmh NW 10.0 mph16.1 kmh 29.47 in998.0 mb 0.00 in0.0 mm 0.00 in0.0 mm 0.01 in0.3 mm
07:19 AM 35.2°F1.8°C 32.6°F0.3°C 90% 9.0 mph WNW14.5 kmh WNW 10.0 mph16.1 kmh 29.47 in998.0 mb 0.00 in0.0 mm 0.00 in0.0 mm 0.01 in0.3 mm
07:14 AM 35.2°F1.8°C 32.6°F0.3°C 90% 6.0 mph NW9.7 kmh NW 12.0 mph19.3 kmh 29.46 in997.6 mb 0.00 in0.0 mm 0.00 in0.0 mm 0.01 in0.3 mm
07:09 AM 35.1°F1.7°C 32.7°F0.4°C 91% 6.0 mph WNW9.7 kmh WNW 12.0 mph19.3 kmh 29.46 in997.6 mb 0.00 in0.0 mm 0.00 in0.0 mm 0.01 in0.3 mm
07:04 AM 34.9°F1.6°C 32.5°F0.3°C 91% 4.0 mph WNW6.4 kmh WNW 13.0 mph20.9 kmh 29.45 in997.3 mb 0.00 in0.0 mm 0.00 in0.0 mm 0.01 in0.3 mm
06:59 AM 34.8°F1.6°C 32.4°F0.2°C 91% 5.0 mph NW8.0 kmh NW 13.0 mph20.9 kmh 29.45 in997.3 mb 0.00 in0.0 mm 0.00 in0.0 mm 0.01 in0.3 mm
06:54 AM 34.8°F1.6°C 32.4°F0.2°C 91% 10.0 mph NW16.1 kmh NW 13.0 mph20.9 kmh 29.45 in997.3 mb 0.00 in0.0 mm 0.00 in0.0 mm 0.01 in0.3 mm
06:49 AM 34.7°F1.5°C 32.3°F0.2°C 91% 5.0 mph WNW8.0 kmh WNW 13.0 mph20.9 kmh 29.45 in997.3 mb 0.00 in0.0 mm 0.00 in0.0 mm 0.01 in0.3 mm
06:44 AM 34.6°F1.4°C 32.2°F0.1°C 91% 5.0 mph WNW8.0 kmh WNW 10.0 mph16.1 kmh 29.45 in997.3 mb 0.00 in0.0 mm 0.00 in0.0 mm 0.01 in0.3 mm
06:39 AM 34.5°F1.4°C 32.1°F0.1°C 91% 6.0 mph WNW9.7 kmh WNW 10.0 mph16.1 kmh 29.44 in997.0 mb 0.00 in0.0 mm 0.00 in0.0 mm 0.01 in0.3 mm
06:34 AM 34.6°F1.4°C 32.2°F0.1°C 91% 7.0 mph WNW11.3 kmh WNW 12.0 mph19.3 kmh 29.44 in997.0 mb 0.00 in0.0 mm 0.00 in0.0 mm 0.01 in0.3 mm
06:29 AM 34.7°F1.5°C 32.3°F0.2°C 91% 5.0 mph W8.0 kmh W 12.0 mph19.3 kmh 29.44 in997.0 mb 0.00 in0.0 mm 0.00 in0.0 mm 0.01 in0.3 mm
06:24 AM 34.8°F1.6°C 32.4°F0.2°C 91% 5.0 mph NW8.0 kmh NW 18.0 mph29.0 kmh 29.43 in996.6 mb 0.00 in0.0 mm 0.00 in0.0 mm 0.01 in0.3 mm
06:19 AM 34.9°F1.6°C 32.5°F0.3°C 91% 4.0 mph NW6.4 kmh NW 18.0 mph29.0 kmh 29.43 in996.6 mb 0.00 in0.0 mm 0.00 in0.0 mm 0.01 in0.3 mm
06:14 AM 35.0°F1.7°C 32.6°F0.3°C 91% 10.0 mph NW16.1 kmh NW 18.0 mph29.0 kmh 29.43 in996.6 mb 0.00 in0.0 mm 0.00 in0.0 mm 0.01 in0.3 mm
06:09 AM 35.1°F1.7°C 32.7°F0.4°C 91% 9.0 mph W14.5 kmh W 18.0 mph29.0 kmh 29.43 in996.6 mb 0.00 in0.0 mm 0.00 in0.0 mm 0.01 in0.3 mm
06:04 AM 35.0°F1.7°C 32.6°F0.3°C 91% 6.0 mph NW9.7 kmh NW 11.0 mph17.7 kmh 29.43 in996.6 mb 0.00 in0.0 mm 0.00 in0.0 mm 0.01 in0.3 mm
05:59 AM 34.9°F1.6°C 32.5°F0.3°C 91% 6.0 mph WNW9.7 kmh WNW 10.0 mph16.1 kmh 29.43 in996.6 mb 0.00 in0.0 mm 0.00 in0.0 mm 0.01 in0.3 mm
05:54 AM 35.1°F1.7°C 32.5°F0.3°C 90% 4.0 mph NW6.4 kmh NW 10.0 mph16.1 kmh 29.43 in996.6 mb 0.00 in0.0 mm 0.00 in0.0 mm 0.01 in0.3 mm
05:49 AM 35.3°F1.8°C 32.7°F0.4°C 90% 4.0 mph WNW6.4 kmh WNW 9.0 mph14.5 kmh 29.43 in996.6 mb 0.00 in0.0 mm 0.00 in0.0 mm 0.01 in0.3 mm
05:44 AM 35.5°F1.9°C 32.9°F0.5°C 90% 6.0 mph W9.7 kmh W 9.0 mph14.5 kmh 29.43 in996.6 mb 0.00 in0.0 mm 0.00 in0.0 mm 0.01 in0.3 mm
05:39 AM 35.6°F2.0°C 33.0°F0.6°C 90% 5.0 mph WNW8.0 kmh WNW 9.0 mph14.5 kmh 29.43 in996.6 mb 0.00 in0.0 mm 0.00 in0.0 mm 0.01 in0.3 mm
05:34 AM 35.6°F2.0°C 33.0°F0.6°C 90% 6.0 mph NW9.7 kmh NW 16.0 mph25.7 kmh 29.42 in996.3 mb 0.00 in0.0 mm 0.00 in0.0 mm 0.01 in0.3 mm
05:29 AM 35.6°F2.0°C 33.0°F0.6°C 90% 3.0 mph NW4.8 kmh NW 16.0 mph25.7 kmh 29.42 in996.3 mb 0.00 in0.0 mm 0.00 in0.0 mm 0.01 in0.3 mm
05:24 AM 35.7°F2.1°C 33.1°F0.6°C 90% 4.0 mph W6.4 kmh W 16.0 mph25.7 kmh 29.42 in996.3 mb 0.00 in0.0 mm 0.00 in0.0 mm 0.01 in0.3 mm
05:19 AM 35.8°F2.1°C 33.2°F0.7°C 90% 10.0 mph W16.1 kmh W 16.0 mph25.7 kmh 29.42 in996.3 mb 0.00 in0.0 mm 0.00 in0.0 mm 0.01 in0.3 mm
05:14 AM 35.7°F2.1°C 33.1°F0.6°C 90% 4.0 mph W6.4 kmh W 12.0 mph19.3 kmh 29.41 in995.9 mb 0.00 in0.0 mm 0.00 in0.0 mm 0.01 in0.3 mm
05:09 AM 35.5°F1.9°C 32.9°F0.5°C 90% 7.0 mph WNW11.3 kmh WNW 9.0 mph14.5 kmh 29.41 in995.9 mb 0.00 in0.0 mm 0.00 in0.0 mm 0.01 in0.3 mm
05:04 AM 35.4°F1.9°C 32.8°F0.4°C 90% 9.0 mph W14.5 kmh W 14.0 mph22.5 kmh 29.41 in995.9 mb 0.00 in0.0 mm 0.00 in0.0 mm 0.01 in0.3 mm
04:59 AM 35.3°F1.8°C 32.7°F0.4°C 90% 6.0 mph NW9.7 kmh NW 14.0 mph22.5 kmh 29.41 in995.9 mb 0.00 in0.0 mm 0.00 in0.0 mm 0.01 in0.3 mm
04:54 AM 35.2°F1.8°C 32.8°F0.4°C 91% 9.0 mph WNW14.5 kmh WNW 14.0 mph22.5 kmh 29.41 in995.9 mb 0.00 in0.0 mm 0.00 in0.0 mm 0.01 in0.3 mm
04:49 AM 35.1°F1.7°C 32.7°F0.4°C 91% 5.0 mph WNW8.0 kmh WNW 14.0 mph22.5 kmh 29.40 in995.6 mb 0.00 in0.0 mm 0.00 in0.0 mm 0.01 in0.3 mm
04:44 AM 35.0°F1.7°C 32.6°F0.3°C 91% 4.0 mph W6.4 kmh W 12.0 mph19.3 kmh 29.40 in995.6 mb 0.00 in0.0 mm 0.00 in0.0 mm 0.01 in0.3 mm
04:39 AM 34.9°F1.6°C 32.5°F0.3°C 91% 10.0 mph W16.1 kmh W 12.0 mph19.3 kmh 29.39 in995.3 mb 0.00 in0.0 mm 0.00 in0.0 mm 0.01 in0.3 mm
04:34 AM 34.8°F1.6°C 32.4°F0.2°C 91% 7.0 mph WNW11.3 kmh WNW 12.0 mph19.3 kmh 29.39 in995.3 mb 0.00 in0.0 mm 0.00 in0.0 mm 0.01 in0.3 mm
04:29 AM 34.8°F1.6°C 32.4°F0.2°C 91% 6.0 mph WNW9.7 kmh WNW 14.0 mph22.5 kmh 29.39 in995.3 mb 0.00 in0.0 mm 0.00 in0.0 mm 0.01 in0.3 mm
04:24 AM 34.8°F1.6°C 32.4°F0.2°C 91% 7.0 mph W11.3 kmh W 14.0 mph22.5 kmh 29.39 in995.3 mb 0.00 in0.0 mm 0.00 in0.0 mm 0.01 in0.3 mm
04:19 AM 34.8°F1.6°C 32.2°F0.1°C 90% 8.0 mph W12.9 kmh W 14.0 mph22.5 kmh 29.39 in995.3 mb 0.00 in0.0 mm 0.00 in0.0 mm 0.01 in0.3 mm
04:14 AM 34.9°F1.6°C 32.5°F0.3°C 91% 8.0 mph W12.9 kmh W 14.0 mph22.5 kmh 29.39 in995.3 mb 0.00 in0.0 mm 0.00 in0.0 mm 0.01 in0.3 mm
04:09 AM 34.9°F1.6°C 32.5°F0.3°C 91% 11.0 mph WNW17.7 kmh WNW 13.0 mph20.9 kmh 29.38 in994.9 mb 0.00 in0.0 mm 0.00 in0.0 mm 0.01 in0.3 mm
04:04 AM 35.0°F1.7°C 32.6°F0.3°C 91% 7.0 mph WSW11.3 kmh WSW 13.0 mph20.9 kmh 29.39 in995.3 mb 0.00 in0.0 mm 0.00 in0.0 mm 0.01 in0.3 mm
03:59 AM 35.0°F1.7°C 32.4°F0.2°C 90% 5.0 mph WNW8.0 kmh WNW 13.0 mph20.9 kmh 29.39 in995.3 mb 0.00 in0.0 mm 0.00 in0.0 mm 0.01 in0.3 mm
03:54 AM 35.1°F1.7°C 32.5°F0.3°C 90% 9.0 mph W14.5 kmh W 13.0 mph20.9 kmh 29.38 in994.9 mb 0.00 in0.0 mm 0.00 in0.0 mm 0.01 in0.3 mm
03:49 AM 35.2°F1.8°C 32.6°F0.3°C 90% 6.0 mph WNW9.7 kmh WNW 15.0 mph24.1 kmh 29.38 in994.9 mb 0.00 in0.0 mm 0.00 in0.0 mm 0.01 in0.3 mm
03:44 AM 35.2°F1.8°C 32.6°F0.3°C 90% 9.0 mph W14.5 kmh W 15.0 mph24.1 kmh 29.38 in994.9 mb 0.00 in0.0 mm 0.00 in0.0 mm 0.01 in0.3 mm
03:39 AM 35.3°F1.8°C 32.7°F0.4°C 90% 7.0 mph W11.3 kmh W 15.0 mph24.1 kmh 29.38 in994.9 mb 0.00 in0.0 mm 0.00 in0.0 mm 0.01 in0.3 mm
03:34 AM 35.4°F1.9°C 32.8°F0.4°C 90% 10.0 mph WNW16.1 kmh WNW 15.0 mph24.1 kmh 29.37 in994.6 mb 0.00 in0.0 mm 0.00 in0.0 mm 0.01 in0.3 mm
03:29 AM 35.5°F1.9°C 32.9°F0.5°C 90% 9.0 mph WSW14.5 kmh WSW 13.0 mph20.9 kmh 29.38 in994.9 mb 0.00 in0.0 mm 0.00 in0.0 mm 0.01 in0.3 mm
03:24 AM 35.6°F2.0°C 33.0°F0.6°C 90% 6.0 mph W9.7 kmh W 14.0 mph22.5 kmh 29.38 in994.9 mb 0.00 in0.0 mm 0.00 in0.0 mm 0.01 in0.3 mm
03:19 AM 35.6°F2.0°C 33.0°F0.6°C 90% 8.0 mph WNW12.9 kmh WNW 14.0 mph22.5 kmh 29.38 in994.9 mb 0.00 in0.0 mm 0.00 in0.0 mm 0.01 in0.3 mm
03:14 AM 35.6°F2.0°C 33.2°F0.7°C 91% 5.0 mph WNW8.0 kmh WNW 17.0 mph27.4 kmh 29.38 in994.9 mb 0.00 in0.0 mm 0.00 in0.0 mm 0.01 in0.3 mm
03:09 AM 35.6°F2.0°C 33.2°F0.7°C 91% 7.0 mph W11.3 kmh W 17.0 mph27.4 kmh 29.38 in994.9 mb 0.00 in0.0 mm 0.00 in0.0 mm 0.01 in0.3 mm
03:04 AM 35.5°F1.9°C 33.1°F0.6°C 91% 10.0 mph WNW16.1 kmh WNW 17.0 mph27.4 kmh 29.37 in994.6 mb 0.00 in0.0 mm 0.00 in0.0 mm 0.01 in0.3 mm
02:59 AM 35.4°F1.9°C 33.0°F0.6°C 91% 9.0 mph NW14.5 kmh NW 17.0 mph27.4 kmh 29.38 in994.9 mb 0.00 in0.0 mm 0.00 in0.0 mm 0.01 in0.3 mm
02:54 AM 35.2°F1.8°C 32.8°F0.4°C 91% 4.0 mph WNW6.4 kmh WNW 11.0 mph17.7 kmh 29.38 in994.9 mb 0.00 in0.0 mm 0.00 in0.0 mm 0.01 in0.3 mm
02:49 AM 35.1°F1.7°C 32.7°F0.4°C 91% 6.0 mph WNW9.7 kmh WNW 11.0 mph17.7 kmh 29.38 in994.9 mb 0.00 in0.0 mm 0.00 in0.0 mm 0.01 in0.3 mm
02:44 AM 35.2°F1.8°C 32.8°F0.4°C 91% 4.0 mph W6.4 kmh W 8.0 mph12.9 kmh 29.38 in994.9 mb 0.00 in0.0 mm 0.00 in0.0 mm 0.01 in0.3 mm
02:39 AM 35.5°F1.9°C 33.1°F0.6°C 91% 4.0 mph NW6.4 kmh NW 14.0 mph22.5 kmh 29.38 in994.9 mb 0.00 in0.0 mm 0.00 in0.0 mm 0.01 in0.3 mm
02:34 AM 35.8°F2.1°C 33.4°F0.8°C 91% Calm Calm 14.0 mph22.5 kmh 29.38 in994.9 mb 0.00 in0.0 mm 0.00 in0.0 mm 0.01 in0.3 mm
02:29 AM 35.9°F2.2°C 33.5°F0.8°C 91% 5.0 mph NW8.0 kmh NW 14.0 mph22.5 kmh 29.38 in994.9 mb 0.00 in0.0 mm 0.00 in0.0 mm 0.01 in0.3 mm
02:24 AM 35.9°F2.2°C 33.5°F0.8°C 91% 9.0 mph WNW14.5 kmh WNW 14.0 mph22.5 kmh 29.37 in994.6 mb 0.00 in0.0 mm 0.00 in0.0 mm 0.01 in0.3 mm
02:19 AM 35.9°F2.2°C 33.5°F0.8°C 91% 8.0 mph WNW12.9 kmh WNW 14.0 mph22.5 kmh 29.37 in994.6 mb 0.00 in0.0 mm 0.00 in0.0 mm 0.01 in0.3 mm
02:14 AM 35.8°F2.1°C 33.4°F0.8°C 91% 7.0 mph WNW11.3 kmh WNW 14.0 mph22.5 kmh 29.37 in994.6 mb 0.00 in0.0 mm 0.00 in0.0 mm 0.01 in0.3 mm
02:09 AM 35.7°F2.1°C 33.6°F0.9°C 92% 4.0 mph NW6.4 kmh NW 12.0 mph19.3 kmh 29.37 in994.6 mb 0.00 in0.0 mm 0.00 in0.0 mm 0.01 in0.3 mm
02:04 AM 35.7°F2.1°C 33.6°F0.9°C 92% 7.0 mph WNW11.3 kmh WNW 12.0 mph19.3 kmh 29.37 in994.6 mb 0.00 in0.0 mm 0.00 in0.0 mm 0.01 in0.3 mm
01:59 AM 35.7°F2.1°C 33.6°F0.9°C 92% 5.0 mph W8.0 kmh W 12.0 mph19.3 kmh 29.37 in994.6 mb 0.00 in0.0 mm 0.00 in0.0 mm 0.01 in0.3 mm
01:54 AM 35.6°F2.0°C 33.5°F0.8°C 92% 7.0 mph W11.3 kmh W 11.0 mph17.7 kmh 29.37 in994.6 mb 0.00 in0.0 mm 0.00 in0.0 mm 0.01 in0.3 mm
01:49 AM 35.6°F2.0°C 33.5°F0.8°C 92% 5.0 mph WNW8.0 kmh WNW 11.0 mph17.7 kmh 29.37 in994.6 mb 0.00 in0.0 mm 0.00 in0.0 mm 0.01 in0.3 mm
01:44 AM 35.5°F1.9°C 33.4°F0.8°C 92% 9.0 mph NW14.5 kmh NW 11.0 mph17.7 kmh 29.37 in994.6 mb 0.00 in0.0 mm 0.00 in0.0 mm 0.01 in0.3 mm
01:39 AM 35.4°F1.9°C 33.6°F0.9°C 93% 6.0 mph NW9.7 kmh NW 11.0 mph17.7 kmh 29.36 in994.2 mb 0.00 in0.0 mm 0.00 in0.0 mm 0.01 in0.3 mm
01:34 AM 35.4°F1.9°C 33.6°F0.9°C 93% 5.0 mph WNW8.0 kmh WNW 11.0 mph17.7 kmh 29.36 in994.2 mb 0.00 in0.0 mm 0.00 in0.0 mm 0.01 in0.3 mm
01:29 AM 35.3°F1.8°C 33.5°F0.8°C 93% 6.0 mph WNW9.7 kmh WNW 11.0 mph17.7 kmh 29.36 in994.2 mb 0.00 in0.0 mm 0.00 in0.0 mm 0.01 in0.3 mm
01:24 AM 35.2°F1.8°C 33.4°F0.8°C 93% 5.0 mph WNW8.0 kmh WNW 11.0 mph17.7 kmh 29.36 in994.2 mb 0.00 in0.0 mm 0.00 in0.0 mm 0.01 in0.3 mm
01:19 AM 35.0°F1.7°C 33.2°F0.7°C 93% 9.0 mph NW14.5 kmh NW 11.0 mph17.7 kmh 29.36 in994.2 mb 0.00 in0.0 mm 0.00 in0.0 mm 0.01 in0.3 mm
01:14 AM 34.9°F1.6°C 33.1°F0.6°C 93% 3.0 mph WNW4.8 kmh WNW 11.0 mph17.7 kmh 29.36 in994.2 mb 0.00 in0.0 mm 0.00 in0.0 mm 0.01 in0.3 mm
01:09 AM 34.8°F1.6°C 33.0°F0.6°C 93% 5.0 mph NW8.0 kmh NW 11.0 mph17.7 kmh 29.36 in994.2 mb 0.00 in0.0 mm 0.00 in0.0 mm 0.01 in0.3 mm
01:04 AM 34.6°F1.4°C 32.8°F0.4°C 93% 7.0 mph W11.3 kmh W 11.0 mph17.7 kmh 29.36 in994.2 mb 0.00 in0.0 mm 0.00 in0.0 mm 0.01 in0.3 mm
12:59 AM 34.5°F1.4°C 32.4°F0.2°C 92% 7.0 mph W11.3 kmh W 10.0 mph16.1 kmh 29.36 in994.2 mb 0.00 in0.0 mm 0.00 in0.0 mm 0.01 in0.3 mm
12:54 AM 34.6°F1.4°C 32.5°F0.3°C 92% 3.0 mph WNW4.8 kmh WNW 10.0 mph16.1 kmh 29.35 in993.9 mb 0.00 in0.0 mm 0.00 in0.0 mm 0.00 in0.0 mm
12:49 AM 34.7°F1.5°C 32.6°F0.3°C 92% 4.0 mph W6.4 kmh W 10.0 mph16.1 kmh 29.35 in993.9 mb 0.00 in0.0 mm 0.00 in0.0 mm 0.00 in0.0 mm
12:44 AM 34.7°F1.5°C 32.6°F0.3°C 92% 4.0 mph WNW6.4 kmh WNW 8.0 mph12.9 kmh 29.35 in993.9 mb 0.00 in0.0 mm 0.00 in0.0 mm 0.00 in0.0 mm
12:39 AM 34.8°F1.6°C 32.7°F0.4°C 92% 4.0 mph W6.4 kmh W 11.0 mph17.7 kmh 29.35 in993.9 mb 0.00 in0.0 mm 0.00 in0.0 mm 0.00 in0.0 mm
12:34 AM 35.0°F1.7°C 32.9°F0.5°C 92% 3.0 mph W4.8 kmh W 11.0 mph17.7 kmh 29.35 in993.9 mb 0.00 in0.0 mm 0.00 in0.0 mm 0.00 in0.0 mm
12:29 AM 35.1°F1.7°C 33.0°F0.6°C 92% 5.0 mph NW8.0 kmh NW 11.0 mph17.7 kmh 29.35 in993.9 mb 0.00 in0.0 mm 0.00 in0.0 mm 0.00 in0.0 mm
12:24 AM 35.1°F1.7°C 33.0°F0.6°C 92% 5.0 mph W8.0 kmh W 11.0 mph17.7 kmh 29.35 in993.9 mb 0.00 in0.0 mm 0.00 in0.0 mm 0.00 in0.0 mm
12:19 AM 35.1°F1.7°C 33.0°F0.6°C 92% 6.0 mph W9.7 kmh W 10.0 mph16.1 kmh 29.34 in993.6 mb 0.00 in0.0 mm 0.00 in0.0 mm 0.00 in0.0 mm
12:14 AM 35.1°F1.7°C 33.0°F0.6°C 92% 5.0 mph WNW8.0 kmh WNW 13.0 mph20.9 kmh 29.34 in993.6 mb 0.00 in0.0 mm 0.00 in0.0 mm 0.00 in0.0 mm
12:09 AM 35.2°F1.8°C 33.1°F0.6°C 92% 6.0 mph WNW9.7 kmh WNW 13.0 mph20.9 kmh 29.34 in993.6 mb 0.00 in0.0 mm 0.00 in0.0 mm 0.00 in0.0 mm
12:04 AM 35.2°F1.8°C 33.1°F0.6°C 92% 7.0 mph WNW11.3 kmh WNW 13.0 mph20.9 kmh 29.34 in993.6 mb 0.00 in0.0 mm 0.00 in0.0 mm 0.00 in0.0 mm